Time;durP1;ratioP1;P1;durP2;ratioP2;P2;SDS_P1;SDS_P2;PMS_P1;PMS_P2;Temp;Humidity;BMP_temperature;BMP_pressure;BME280_temperature;BME280_humidity;BME280_pressure;Samples;Min_cycle;Max_cycle;Signal;HPM_P1;HPM_P2
2023/09/03 00:02:24;;;;;;;3.80;2.73;;;;;;;;;;5044277;28;20869;-67
2023/09/03 00:04:50;;;;;;;6.83;2.70;;;;;;;;;;5042714;28;20447;-67
2023/09/03 00:07:16;;;;;;;2.50;2.47;;;;;;;;;;5040794;28;20492;-67
2023/09/03 00:09:42;;;;;;;2.50;2.40;;;;;;;;;;5044048;28;20841;-67
2023/09/03 00:12:08;;;;;;;5.60;2.80;;;;;;;;;;5048954;28;21007;-67
2023/09/03 00:14:34;;;;;;;2.47;2.37;;;;;;;;;;5033611;28;20655;-67
2023/09/03 00:16:59;;;;;;;3.53;2.50;;;;;;;;;;5044947;28;20427;-67
2023/09/03 00:19:25;;;;;;;16.73;2.80;;;;;;;;;;5046137;28;20426;-67
2023/09/03 00:21:51;;;;;;;1.93;1.77;;;;;;;;;;5049161;28;20846;-68
2023/09/03 00:24:17;;;;;;;2.93;2.43;;;;;;;;;;5047036;28;20499;-67
2023/09/03 00:26:43;;;;;;;5.60;2.53;;;;;;;;;;5048898;28;20985;-67
2023/09/03 00:29:09;;;;;;;2.80;2.47;;;;;;;;;;5046159;28;20454;-67
2023/09/03 00:31:35;;;;;;;3.00;2.83;;;;;;;;;;5046066;28;20550;-67
2023/09/03 00:34:01;;;;;;;2.83;2.73;;;;;;;;;;5043796;28;20555;-67
2023/09/03 00:36:27;;;;;;;2.50;2.40;;;;;;;;;;5044896;28;20426;-67
2023/09/03 00:38:53;;;;;;;2.63;2.53;;;;;;;;;;5041564;28;20450;-67
2023/09/03 00:41:19;;;;;;;3.00;2.87;;;;;;;;;;5042876;28;20466;-67
2023/09/03 00:43:45;;;;;;;5.60;2.47;;;;;;;;;;5030763;28;20517;-67
2023/09/03 00:46:12;;;;;;;2.23;2.13;;;;;;;;;;5035984;28;20486;-67
2023/09/03 00:48:39;;;;;;;2.83;2.63;;;;;;;;;;5034791;28;20423;-67
2023/09/03 00:51:07;;;;;;;7.60;3.00;;;;;;;;;;5041027;28;20445;-68
2023/09/03 00:53:34;;;;;;;6.00;2.30;;;;;;;;;;5038194;28;20467;-68
2023/09/03 00:56:00;;;;;;;3.17;1.50;;;;;;;;;;5041888;28;20446;-67
2023/09/03 00:58:27;;;;;;;2.23;2.13;;;;;;;;;;5044258;28;20450;-68
2023/09/03 01:00:53;;;;;;;2.50;2.40;;;;;;;;;;5044615;28;20470;-67
2023/09/03 01:03:20;;;;;;;3.37;3.17;;;;;;;;;;5042229;28;20450;-67
2023/09/03 01:05:46;;;;;;;3.57;2.40;;;;;;;;;;5038434;28;20541;-68
2023/09/03 01:08:12;;;;;;;5.77;2.67;;;;;;;;;;5027758;28;20966;-67
2023/09/03 01:10:38;;;;;;;2.73;2.53;;;;;;;;;;5030157;28;20440;-67
2023/09/03 01:13:14;;;;;;;2.63;2.37;;;;;;;;;;5033586;28;21158;-67
2023/09/03 01:15:46;;;;;;;3.83;2.00;;;;;;;;;;5030334;28;20180;-68
2023/09/03 01:18:15;;;;;;;6.30;2.30;;;;;;;;;;5045059;28;20438;-67
2023/09/03 01:21:00;;;;;;;2.50;2.40;;;;;;;;;;5031184;28;21046;-67
2023/09/03 01:23:33;;;;;;;2.60;2.40;;;;;;;;;;5035049;28;20457;-68
2023/09/03 01:26:02;;;;;;;2.83;2.53;;;;;;;;;;5028455;28;20549;-67
2023/09/03 01:28:30;;;;;;;2.30;2.30;;;;;;;;;;5028406;28;20439;-68
2023/09/03 01:31:02;;;;;;;10.10;2.47;;;;;;;;;;5029980;28;20946;-67
2023/09/03 01:33:28;;;;;;;2.77;2.67;;;;;;;;;;5039912;28;20446;-67
2023/09/03 01:35:57;;;;;;;3.43;2.27;;;;;;;;;;5035779;28;20819;-67
2023/09/03 01:38:23;;;;;;;2.30;2.20;;;;;;;;;;5032279;28;20449;-67
2023/09/03 01:40:50;;;;;;;2.80;2.60;;;;;;;;;;5030275;28;20496;-67
2023/09/03 01:43:16;;;;;;;3.60;2.80;;;;;;;;;;5029330;28;20454;-68
2023/09/03 01:45:46;;;;;;;3.80;2.80;;;;;;;;;;5030382;28;20474;-68
2023/09/03 01:48:18;;;;;;;3.07;2.87;;;;;;;;;;5029536;28;20457;-68
2023/09/03 01:50:49;;;;;;;14.33;3.23;;;;;;;;;;5029045;28;20959;-68
2023/09/03 01:53:20;;;;;;;3.03;2.83;;;;;;;;;;5036358;28;20530;-67
2023/09/03 01:55:52;;;;;;;3.10;2.90;;;;;;;;;;5029749;28;20446;-67
2023/09/03 01:58:19;;;;;;;3.23;3.13;;;;;;;;;;5034858;28;20430;-67
2023/09/03 02:00:45;;;;;;;5.93;2.53;;;;;;;;;;5037861;28;20500;-67
2023/09/03 02:03:11;;;;;;;4.57;2.60;;;;;;;;;;5031514;28;20530;-67
2023/09/03 02:05:38;;;;;;;4.60;2.90;;;;;;;;;;5032863;28;20966;-67
2023/09/03 02:08:04;;;;;;;2.93;2.80;;;;;;;;;;5030476;28;20471;-68
2023/09/03 02:10:30;;;;;;;3.23;2.93;;;;;;;;;;5028368;28;20427;-68
2023/09/03 02:12:56;;;;;;;2.97;2.33;;;;;;;;;;5029544;28;20520;-68
2023/09/03 02:15:22;;;;;;;3.27;2.90;;;;;;;;;;5027413;28;20430;-68
2023/09/03 02:17:48;;;;;;;2.40;2.30;;;;;;;;;;5028127;28;20447;-67
2023/09/03 02:20:15;;;;;;;2.43;2.10;;;;;;;;;;5029316;28;20446;-68
2023/09/03 02:22:40;;;;;;;2.67;2.47;;;;;;;;;;5027123;28;20948;-68
2023/09/03 02:25:07;;;;;;;4.50;2.50;;;;;;;;;;5030167;28;20447;-68
2023/09/03 02:27:33;;;;;;;8.27;2.30;;;;;;;;;;5027011;28;21002;-68
2023/09/03 02:29:59;;;;;;;2.20;2.03;;;;;;;;;;5033377;28;20431;-68
2023/09/03 02:32:25;;;;;;;6.30;2.77;;;;;;;;;;5031343;28;20447;-67
2023/09/03 02:34:51;;;;;;;2.63;2.43;;;;;;;;;;5033581;28;20844;-68
2023/09/03 02:37:18;;;;;;;7.50;1.77;;;;;;;;;;5031356;28;20462;-68
2023/09/03 02:39:44;;;;;;;2.67;2.47;;;;;;;;;;5040546;28;20960;-68
2023/09/03 02:42:10;;;;;;;6.00;1.90;;;;;;;;;;5033347;28;20458;-68
2023/09/03 02:44:36;;;;;;;6.60;2.13;;;;;;;;;;5033967;28;20782;-67
2023/09/03 02:47:02;;;;;;;2.43;2.37;;;;;;;;;;5032911;28;20518;-68
2023/09/03 02:49:27;;;;;;;4.33;2.30;;;;;;;;;;5033442;28;20450;-68
2023/09/03 02:51:53;;;;;;;5.93;3.47;;;;;;;;;;5031344;28;20446;-68
2023/09/03 02:54:19;;;;;;;2.47;2.40;;;;;;;;;;5032411;28;20485;-68
2023/09/03 02:56:45;;;;;;;4.70;3.10;;;;;;;;;;5030535;28;21192;-68
2023/09/03 02:59:11;;;;;;;2.60;2.57;;;;;;;;;;5031246;28;20442;-68
2023/09/03 03:01:37;;;;;;;8.90;4.27;;;;;;;;;;5033581;28;21273;-68
2023/09/03 03:04:04;;;;;;;3.10;3.00;;;;;;;;;;5032946;28;20501;-68
2023/09/03 03:06:29;;;;;;;2.90;2.70;;;;;;;;;;5034370;28;20800;-68
2023/09/03 03:08:55;;;;;;;2.40;2.40;;;;;;;;;;5032735;28;20855;-68
2023/09/03 03:11:23;;;;;;;3.57;3.27;;;;;;;;;;5034673;28;20446;-68
2023/09/03 03:13:51;;;;;;;4.53;2.93;;;;;;;;;;5032602;28;20806;-67
2023/09/03 03:16:18;;;;;;;2.90;2.80;;;;;;;;;;5031858;28;20923;-68
2023/09/03 03:18:45;;;;;;;10.67;2.60;;;;;;;;;;5030510;28;20445;-68
2023/09/03 03:21:16;;;;;;;2.57;2.37;;;;;;;;;;5031436;28;20939;-68
2023/09/03 03:23:42;;;;;;;3.87;2.43;;;;;;;;;;5031631;28;20438;-68
2023/09/03 03:26:08;;;;;;;12.73;3.30;;;;;;;;;;5030215;28;20569;-68
2023/09/03 03:28:35;;;;;;;9.67;5.07;;;;;;;;;;5032617;28;20439;-69
2023/09/03 03:31:11;;;;;;;5.73;4.40;;;;;;;;;;5030752;28;20438;-68
2023/09/03 03:33:38;;;;;;;3.10;3.00;;;;;;;;;;5035096;28;20419;-68
2023/09/03 03:36:04;;;;;;;2.30;2.20;;;;;;;;;;5033586;28;20469;-68
2023/09/03 03:38:30;;;;;;;3.60;3.33;;;;;;;;;;5033074;28;20467;-67
2023/09/03 03:41:09;;;;;;;3.80;3.50;;;;;;;;;;5028600;28;21080;-68
2023/09/03 03:43:38;;;;;;;5.50;2.80;;;;;;;;;;5030497;28;20458;-68
2023/09/03 03:46:08;;;;;;;5.23;2.87;;;;;;;;;;5029321;28;20485;-68
2023/09/03 03:48:34;;;;;;;6.83;2.90;;;;;;;;;;5032514;28;20446;-68
2023/09/03 03:51:01;;;;;;;2.60;1.80;;;;;;;;;;5016515;28;20435;-68
2023/09/03 03:53:27;;;;;;;6.33;2.70;;;;;;;;;;5025890;28;20502;-68
2023/09/03 03:55:58;;;;;;;4.40;2.60;;;;;;;;;;5033632;28;20451;-68
2023/09/03 03:58:25;;;;;;;1.37;1.37;;;;;;;;;;5041431;28;20445;-70
2023/09/03 04:00:51;;;;;;;2.40;2.20;;;;;;;;;;5031245;28;20434;-68
2023/09/03 04:03:17;;;;;;;2.60;2.40;;;;;;;;;;5031653;28;20807;-68
2023/09/03 04:05:43;;;;;;;3.70;2.80;;;;;;;;;;5030293;28;20695;-68
2023/09/03 04:08:09;;;;;;;1.87;1.77;;;;;;;;;;5030576;28;20831;-68
2023/09/03 04:10:35;;;;;;;2.40;2.30;;;;;;;;;;5031130;28;20450;-67
2023/09/03 04:13:01;;;;;;;1.90;1.87;;;;;;;;;;5028824;28;20958;-67
2023/09/03 04:15:27;;;;;;;3.43;2.83;;;;;;;;;;5031358;28;21234;-68
2023/09/03 04:17:53;;;;;;;2.00;1.90;;;;;;;;;;5030781;28;20576;-67
2023/09/03 04:20:19;;;;;;;2.10;2.00;;;;;;;;;;5029029;28;20455;-68
2023/09/03 04:22:45;;;;;;;3.13;2.03;;;;;;;;;;5030260;28;20445;-68
2023/09/03 04:25:11;;;;;;;1.93;1.83;;;;;;;;;;5031811;28;20920;-67
2023/09/03 04:27:36;;;;;;;3.27;1.73;;;;;;;;;;5033036;28;20858;-68
2023/09/03 04:30:03;;;;;;;2.50;2.07;;;;;;;;;;5031716;28;20809;-68
2023/09/03 04:32:29;;;;;;;9.47;3.07;;;;;;;;;;5030952;28;20435;-68
2023/09/03 04:34:55;;;;;;;5.27;2.90;;;;;;;;;;5018731;28;20970;-67
2023/09/03 04:37:21;;;;;;;2.80;2.40;;;;;;;;;;5031764;28;20900;-68
2023/09/03 04:39:47;;;;;;;5.50;3.00;;;;;;;;;;5031307;28;20439;-68
2023/09/03 04:42:13;;;;;;;1.70;1.70;;;;;;;;;;5029163;28;20923;-68
2023/09/03 04:44:42;;;;;;;1.60;1.57;;;;;;;;;;5028596;28;20967;-68
2023/09/03 04:47:07;;;;;;;8.10;1.70;;;;;;;;;;5029960;28;20476;-68
2023/09/03 04:49:33;;;;;;;1.47;1.47;;;;;;;;;;5029074;28;20438;-68
2023/09/03 04:51:59;;;;;;;1.80;1.47;;;;;;;;;;5030730;28;20465;-69
2023/09/03 04:54:25;;;;;;;1.67;1.67;;;;;;;;;;5030668;28;20511;-67
2023/09/03 04:56:52;;;;;;;2.00;1.90;;;;;;;;;;5030243;28;20952;-68
2023/09/03 04:59:18;;;;;;;1.50;1.50;;;;;;;;;;5028933;28;20935;-68
2023/09/03 05:01:44;;;;;;;2.33;1.90;;;;;;;;;;5031302;28;20447;-68
2023/09/03 05:04:10;;;;;;;2.00;2.00;;;;;;;;;;5029672;28;20449;-68
2023/09/03 05:06:36;;;;;;;3.67;2.20;;;;;;;;;;5033112;28;20492;-68
2023/09/03 05:09:02;;;;;;;3.07;2.03;;;;;;;;;;5028289;28;20469;-67
2023/09/03 05:11:28;;;;;;;2.03;2.03;;;;;;;;;;5029725;28;20449;-67
2023/09/03 05:13:54;;;;;;;1.90;1.90;;;;;;;;;;5029567;28;20441;-67
2023/09/03 05:16:23;;;;;;;3.50;1.90;;;;;;;;;;5034575;28;21014;-68
2023/09/03 05:18:49;;;;;;;2.70;1.67;;;;;;;;;;5030594;28;20465;-68
2023/09/03 05:21:15;;;;;;;2.10;2.10;;;;;;;;;;5029229;28;20588;-68
2023/09/03 05:23:41;;;;;;;1.70;1.60;;;;;;;;;;5029390;28;20446;-68
2023/09/03 05:26:07;;;;;;;7.70;2.03;;;;;;;;;;5031067;28;20470;-68
2023/09/03 05:28:33;;;;;;;3.00;2.70;;;;;;;;;;5028787;28;20530;-67
2023/09/03 05:30:59;;;;;;;2.50;2.30;;;;;;;;;;5029822;28;20430;-68
2023/09/03 05:33:26;;;;;;;8.93;3.33;;;;;;;;;;5028756;28;20449;-68
2023/09/03 05:35:52;;;;;;;3.33;2.10;;;;;;;;;;5030388;28;20461;-67
2023/09/03 05:38:17;;;;;;;2.60;1.77;;;;;;;;;;5029707;28;20565;-68
2023/09/03 05:40:43;;;;;;;2.10;2.00;;;;;;;;;;5029423;28;20530;-67
2023/09/03 05:43:09;;;;;;;1.90;1.80;;;;;;;;;;5028696;28;20443;-67
2023/09/03 05:45:35;;;;;;;2.20;2.10;;;;;;;;;;5030281;28;20496;-69
2023/09/03 05:48:01;;;;;;;2.37;2.37;;;;;;;;;;5029109;28;20500;-68
2023/09/03 05:50:30;;;;;;;2.30;2.10;;;;;;;;;;5030105;28;20844;-68
2023/09/03 05:52:56;;;;;;;2.00;1.90;;;;;;;;;;5028492;28;20455;-68
2023/09/03 05:55:22;;;;;;;2.10;2.00;;;;;;;;;;5034703;28;20804;-68
2023/09/03 05:57:48;;;;;;;5.40;1.90;;;;;;;;;;5032549;28;20480;-69
2023/09/03 06:00:14;;;;;;;2.87;2.23;;;;;;;;;;5030836;28;20426;-67
2023/09/03 06:02:40;;;;;;;2.97;1.90;;;;;;;;;;5039793;28;20466;-68
2023/09/03 06:05:07;;;;;;;4.13;1.80;;;;;;;;;;5040116;28;20473;-69
2023/09/03 06:07:33;;;;;;;5.53;2.13;;;;;;;;;;5033106;28;20493;-68
2023/09/03 06:09:58;;;;;;;5.10;2.13;;;;;;;;;;5047594;28;20438;-67
2023/09/03 06:12:24;;;;;;;1.57;1.57;;;;;;;;;;5040176;28;20439;-68
2023/09/03 06:14:50;;;;;;;6.43;1.70;;;;;;;;;;5034233;28;20456;-69
2023/09/03 06:17:16;;;;;;;5.30;2.50;;;;;;;;;;5033274;28;20431;-69
2023/09/03 06:19:46;;;;;;;2.00;1.90;;;;;;;;;;5033227;28;20774;-69
2023/09/03 06:22:12;;;;;;;7.80;2.27;;;;;;;;;;5033363;28;20442;-69
2023/09/03 06:24:38;;;;;;;2.77;2.67;;;;;;;;;;5034435;28;20427;-68
2023/09/03 06:27:04;;;;;;;3.83;2.50;;;;;;;;;;5037837;28;21021;-70
2023/09/03 06:29:30;;;;;;;4.10;2.40;;;;;;;;;;5033526;28;20798;-69
2023/09/03 06:31:56;;;;;;;2.70;2.70;;;;;;;;;;5038173;28;20434;-68
2023/09/03 06:34:22;;;;;;;2.37;2.37;;;;;;;;;;5034537;28;21019;-69
2023/09/03 06:36:48;;;;;;;3.13;2.60;;;;;;;;;;5038196;28;20434;-68
2023/09/03 06:39:14;;;;;;;3.83;2.33;;;;;;;;;;5047191;28;20457;-68
2023/09/03 06:41:40;;;;;;;2.30;2.20;;;;;;;;;;5044073;28;20477;-70
2023/09/03 06:44:06;;;;;;;2.83;2.73;;;;;;;;;;5036922;28;20435;-68
2023/09/03 06:46:32;;;;;;;2.50;2.40;;;;;;;;;;5050273;28;20520;-68
2023/09/03 06:48:58;;;;;;;2.73;2.57;;;;;;;;;;5046482;28;20525;-68
2023/09/03 06:51:24;;;;;;;4.03;3.00;;;;;;;;;;5048793;28;20693;-69
2023/09/03 06:53:50;;;;;;;3.13;2.90;;;;;;;;;;5032163;28;20492;-70
2023/09/03 06:56:16;;;;;;;8.00;3.50;;;;;;;;;;5047433;28;20434;-69
2023/09/03 06:58:42;;;;;;;3.80;3.57;;;;;;;;;;5050613;28;20445;-68
2023/09/03 07:01:08;;;;;;;3.10;2.70;;;;;;;;;;5048452;28;20466;-69
2023/09/03 07:03:34;;;;;;;3.30;3.10;;;;;;;;;;5045490;28;20808;-70
2023/09/03 07:06:00;;;;;;;3.37;3.27;;;;;;;;;;5047715;28;20950;-68
2023/09/03 07:08:26;;;;;;;3.33;3.13;;;;;;;;;;5046462;28;20959;-68
2023/09/03 07:10:58;;;;;;;3.00;3.00;;;;;;;;;;5045059;28;20953;-68
2023/09/03 07:13:24;;;;;;;2.83;2.50;;;;;;;;;;5041657;28;21349;-67
2023/09/03 07:15:50;;;;;;;4.03;3.63;;;;;;;;;;5035992;28;20481;-68
2023/09/03 07:18:16;;;;;;;2.63;1.47;;;;;;;;;;5041876;28;20435;-69
2023/09/03 07:20:42;;;;;;;3.63;3.30;;;;;;;;;;5042101;28;20193;-68
2023/09/03 07:23:08;;;;;;;3.20;3.10;;;;;;;;;;5032429;28;20481;-68
2023/09/03 07:25:35;;;;;;;4.70;2.97;;;;;;;;;;5031670;28;20432;-68
2023/09/03 07:28:01;;;;;;;3.40;3.10;;;;;;;;;;5031238;28;20483;-68
2023/09/03 07:30:27;;;;;;;3.10;2.90;;;;;;;;;;5046148;28;20427;-69
2023/09/03 07:32:53;;;;;;;3.33;3.23;;;;;;;;;;5040947;28;20442;-68
2023/09/03 07:35:19;;;;;;;3.60;3.40;;;;;;;;;;5032520;28;20431;-67
2023/09/03 07:37:46;;;;;;;5.97;3.17;;;;;;;;;;5033827;28;20477;-68
2023/09/03 07:40:12;;;;;;;4.60;3.30;;;;;;;;;;5045565;28;20529;-68
2023/09/03 07:42:38;;;;;;;6.13;3.60;;;;;;;;;;5046567;28;20517;-68
2023/09/03 07:45:05;;;;;;;5.90;3.97;;;;;;;;;;5034446;28;20427;-68
2023/09/03 07:47:30;;;;;;;3.47;3.10;;;;;;;;;;5041422;28;20478;-68
2023/09/03 07:49:56;;;;;;;3.47;3.37;;;;;;;;;;5044475;28;20433;-68
2023/09/03 07:52:22;;;;;;;3.40;3.13;;;;;;;;;;5040413;28;20899;-68
2023/09/03 07:54:48;;;;;;;4.70;3.40;;;;;;;;;;5040626;28;20479;-68
2023/09/03 07:57:14;;;;;;;3.67;3.57;;;;;;;;;;5030553;28;20426;-68
2023/09/03 07:59:40;;;;;;;3.37;3.27;;;;;;;;;;5032404;28;20444;-68
2023/09/03 08:02:06;;;;;;;4.37;4.07;;;;;;;;;;5030924;28;20509;-68
2023/09/03 08:04:32;;;;;;;4.30;4.03;;;;;;;;;;5030475;28;20550;-67
2023/09/03 08:06:58;;;;;;;4.73;3.60;;;;;;;;;;5031401;28;20954;-67
2023/09/03 08:09:26;;;;;;;2.67;2.67;;;;;;;;;;5031759;28;20461;-68
2023/09/03 08:11:52;;;;;;;4.30;4.00;;;;;;;;;;5033209;28;20925;-67
2023/09/03 08:14:18;;;;;;;3.60;3.30;;;;;;;;;;5031552;28;20430;-67
2023/09/03 08:16:45;;;;;;;2.63;2.53;;;;;;;;;;5027121;28;20801;-68
2023/09/03 08:19:11;;;;;;;2.70;2.70;;;;;;;;;;5030872;28;20438;-67
2023/09/03 08:21:37;;;;;;;3.33;3.23;;;;;;;;;;5030945;28;20443;-68
2023/09/03 08:24:03;;;;;;;4.00;3.80;;;;;;;;;;5030540;28;20427;-67
2023/09/03 08:26:29;;;;;;;3.93;3.73;;;;;;;;;;5030927;28;20497;-68
2023/09/03 08:28:54;;;;;;;3.10;3.00;;;;;;;;;;5032683;28;20438;-67
2023/09/03 08:31:20;;;;;;;3.43;3.33;;;;;;;;;;5033474;28;20492;-68
2023/09/03 08:33:46;;;;;;;4.03;3.83;;;;;;;;;;5032544;28;20438;-68
2023/09/03 08:36:12;;;;;;;3.60;3.40;;;;;;;;;;5033051;28;20443;-67
2023/09/03 08:38:38;;;;;;;10.67;3.90;;;;;;;;;;5030225;28;20430;-68
2023/09/03 08:41:04;;;;;;;3.10;3.00;;;;;;;;;;5030401;28;20431;-67
2023/09/03 08:43:31;;;;;;;10.57;3.60;;;;;;;;;;5028794;28;20474;-68
2023/09/03 08:46:01;;;;;;;7.53;3.17;;;;;;;;;;5030750;28;21494;-68
2023/09/03 08:48:27;;;;;;;3.30;3.20;;;;;;;;;;5031750;28;20497;-67
2023/09/03 08:50:53;;;;;;;3.20;3.10;;;;;;;;;;5030606;28;20529;-68
2023/09/03 08:53:22;;;;;;;8.10;3.07;;;;;;;;;;5029996;28;20475;-68
2023/09/03 08:55:48;;;;;;;3.00;2.90;;;;;;;;;;5032989;28;20431;-67
2023/09/03 08:58:15;;;;;;;3.77;3.53;;;;;;;;;;5030285;28;20808;-67
2023/09/03 09:00:41;;;;;;;3.17;2.97;;;;;;;;;;5030650;28;20432;-67
2023/09/03 09:03:11;;;;;;;3.43;3.00;;;;;;;;;;5044351;28;20447;-67
2023/09/03 09:05:37;;;;;;;7.30;3.47;;;;;;;;;;5029750;28;20431;-68
2023/09/03 09:08:05;;;;;;;3.13;3.00;;;;;;;;;;5031506;28;21057;-67
2023/09/03 09:10:37;;;;;;;6.30;2.87;;;;;;;;;;5031818;28;20441;-68
2023/09/03 09:13:10;;;;;;;5.10;2.90;;;;;;;;;;5032999;28;20446;-68
2023/09/03 09:15:36;;;;;;;2.80;2.70;;;;;;;;;;5032486;28;20471;-67
2023/09/03 09:18:08;;;;;;;3.50;3.30;;;;;;;;;;5030425;28;20427;-68
2023/09/03 09:20:35;;;;;;;4.47;3.60;;;;;;;;;;5027733;28;21034;-67
2023/09/03 09:23:01;;;;;;;3.17;2.90;;;;;;;;;;5028494;28;20493;-68
2023/09/03 09:25:27;;;;;;;2.83;2.73;;;;;;;;;;5031336;28;20932;-68
2023/09/03 09:27:53;;;;;;;8.33;2.93;;;;;;;;;;5030583;28;20510;-67
2023/09/03 09:30:27;;;;;;;5.50;2.40;;;;;;;;;;5029075;28;20446;-67
2023/09/03 09:33:03;;;;;;;1.77;1.77;;;;;;;;;;5029684;28;20485;-67
2023/09/03 09:35:29;;;;;;;3.60;2.80;;;;;;;;;;5029882;28;20441;-67
2023/09/03 09:37:55;;;;;;;4.20;3.40;;;;;;;;;;5031901;28;20950;-67
2023/09/03 09:40:29;;;;;;;2.67;2.63;;;;;;;;;;5046697;28;20431;-67
2023/09/03 09:43:00;;;;;;;6.00;3.07;;;;;;;;;;5034096;28;20448;-67
2023/09/03 09:45:26;;;;;;;2.20;2.20;;;;;;;;;;5035574;28;20954;-68
2023/09/03 09:48:09;;;;;;;3.13;2.93;;;;;;;;;;5034643;28;20497;-68
2023/09/03 09:50:35;;;;;;;8.53;3.13;;;;;;;;;;5035514;28;20449;-67
2023/09/03 09:53:02;;;;;;;2.63;2.63;;;;;;;;;;5031935;28;20498;-67
2023/09/03 09:55:29;;;;;;;3.13;3.13;;;;;;;;;;5034613;28;20466;-68
2023/09/03 09:57:56;;;;;;;2.50;2.30;;;;;;;;;;5036781;28;20942;-68
2023/09/03 10:00:34;;;;;;;3.00;2.90;;;;;;;;;;5037040;28;20427;-67
2023/09/03 10:03:00;;;;;;;2.73;2.60;;;;;;;;;;5032107;28;20430;-67
2023/09/03 10:05:26;;;;;;;3.17;2.97;;;;;;;;;;5033620;28;20439;-67
2023/09/03 10:07:54;;;;;;;3.93;2.77;;;;;;;;;;5033905;28;20553;-68
2023/09/03 10:10:21;;;;;;;3.20;3.00;;;;;;;;;;5034028;28;20431;-67
2023/09/03 10:12:47;;;;;;;2.67;2.67;;;;;;;;;;5033470;28;20511;-67
2023/09/03 10:15:13;;;;;;;3.17;3.07;;;;;;;;;;5038432;28;20939;-68
2023/09/03 10:17:40;;;;;;;2.60;2.60;;;;;;;;;;5032796;28;20801;-68
2023/09/03 10:20:09;;;;;;;3.10;3.00;;;;;;;;;;5032981;28;20434;-67
2023/09/03 10:22:36;;;;;;;23.67;2.90;;;;;;;;;;5033652;28;20431;-67
2023/09/03 10:25:05;;;;;;;2.80;2.40;;;;;;;;;;5033783;28;20438;-67
2023/09/03 10:27:36;;;;;;;3.37;2.87;;;;;;;;;;5033706;28;20487;-67
2023/09/03 10:30:04;;;;;;;2.90;2.80;;;;;;;;;;5032617;28;20476;-67
2023/09/03 10:32:30;;;;;;;4.07;3.77;;;;;;;;;;5032835;28;20418;-68
2023/09/03 10:34:56;;;;;;;3.17;3.07;;;;;;;;;;5034674;28;20785;-67
2023/09/03 10:37:35;;;;;;;3.00;2.80;;;;;;;;;;5033318;28;20469;-67
2023/09/03 10:40:20;;;;;;;2.67;2.50;;;;;;;;;;5033886;28;20433;-68
2023/09/03 10:42:47;;;;;;;2.97;2.77;;;;;;;;;;5032180;28;20485;-68
2023/09/03 10:45:14;;;;;;;4.00;3.70;;;;;;;;;;5032898;28;20456;-68
2023/09/03 10:47:58;;;;;;;2.97;2.70;;;;;;;;;;5033007;28;20532;-68
2023/09/03 10:50:42;;;;;;;4.10;2.90;;;;;;;;;;5034111;28;20449;-68
2023/09/03 10:53:09;;;;;;;3.30;3.10;;;;;;;;;;5033752;28;20477;-67
2023/09/03 10:55:35;;;;;;;2.40;2.10;;;;;;;;;;5033990;28;20958;-67
2023/09/03 10:58:10;;;;;;;4.77;2.60;;;;;;;;;;5034338;28;20938;-67
2023/09/03 11:00:37;;;;;;;3.50;2.70;;;;;;;;;;5030443;28;20557;-67
2023/09/03 11:03:17;;;;;;;2.90;2.47;;;;;;;;;;5043296;28;20489;-68
2023/09/03 11:06:03;;;;;;;3.00;2.90;;;;;;;;;;5036977;28;20505;-68
2023/09/03 11:08:34;;;;;;;2.77;2.57;;;;;;;;;;5042716;28;20451;-68
2023/09/03 11:11:00;;;;;;;7.03;3.30;;;;;;;;;;5029371;28;21231;-68
2023/09/03 11:13:27;;;;;;;11.37;2.30;;;;;;;;;;5038525;28;20545;-67
2023/09/03 11:15:56;;;;;;;2.40;2.30;;;;;;;;;;5045254;28;20518;-67
2023/09/03 11:18:23;;;;;;;2.63;2.53;;;;;;;;;;5041939;28;21368;-67
2023/09/03 11:20:49;;;;;;;3.53;2.00;;;;;;;;;;5044046;28;20930;-67
2023/09/03 11:23:16;;;;;;;4.10;2.23;;;;;;;;;;5040492;28;20829;-67
2023/09/03 11:25:42;;;;;;;2.27;2.17;;;;;;;;;;5041187;28;20426;-67
2023/09/03 11:28:11;;;;;;;2.30;2.20;;;;;;;;;;5045629;28;20482;-68
2023/09/03 11:30:37;;;;;;;3.27;2.87;;;;;;;;;;5035327;28;20446;-67
2023/09/03 11:33:03;;;;;;;6.00;2.40;;;;;;;;;;5040861;28;20439;-67
2023/09/03 11:35:38;;;;;;;1.87;1.80;;;;;;;;;;5043122;28;20478;-68
2023/09/03 11:38:04;;;;;;;2.70;2.20;;;;;;;;;;5030839;28;20438;-68
2023/09/03 11:40:31;;;;;;;2.10;2.10;;;;;;;;;;5034281;28;20938;-68
2023/09/03 11:42:58;;;;;;;2.30;2.30;;;;;;;;;;5040584;28;20438;-68
2023/09/03 11:45:24;;;;;;;2.43;2.33;;;;;;;;;;5041663;28;20461;-68
2023/09/03 11:47:50;;;;;;;2.30;2.30;;;;;;;;;;5044315;28;20478;-67
2023/09/03 11:50:17;;;;;;;2.87;2.70;;;;;;;;;;5036274;28;20451;-67
2023/09/03 11:52:56;;;;;;;2.80;2.67;;;;;;;;;;5042328;28;20438;-68
2023/09/03 11:55:25;;;;;;;2.17;2.07;;;;;;;;;;5036322;28;20450;-68
2023/09/03 11:57:52;;;;;;;2.67;2.47;;;;;;;;;;5039424;28;20607;-67
2023/09/03 12:00:20;;;;;;;2.13;2.07;;;;;;;;;;5042073;28;20998;-67
2023/09/03 12:02:46;;;;;;;2.57;2.47;;;;;;;;;;5037916;28;20439;-68
2023/09/03 12:05:12;;;;;;;2.83;2.13;;;;;;;;;;5037307;28;20449;-68
2023/09/03 12:07:38;;;;;;;2.77;2.57;;;;;;;;;;5040256;28;20596;-67
2023/09/03 12:10:05;;;;;;;2.73;2.53;;;;;;;;;;5027980;28;20445;-67
2023/09/03 12:12:31;;;;;;;1.97;1.97;;;;;;;;;;5042883;28;20439;-68
2023/09/03 12:14:57;;;;;;;3.50;3.40;;;;;;;;;;5039359;28;20426;-68
2023/09/03 12:17:23;;;;;;;2.33;2.33;;;;;;;;;;5044819;28;20469;-67
2023/09/03 12:19:50;;;;;;;2.50;2.40;;;;;;;;;;5045126;28;20811;-67
2023/09/03 12:22:17;;;;;;;2.30;2.20;;;;;;;;;;5046627;28;20446;-67
2023/09/03 12:24:43;;;;;;;2.37;2.20;;;;;;;;;;5043140;28;20453;-67
2023/09/03 12:27:09;;;;;;;3.57;2.20;;;;;;;;;;5035639;28;20627;-67
2023/09/03 12:29:36;;;;;;;2.40;2.30;;;;;;;;;;5039003;28;20520;-67
2023/09/03 12:32:04;;;;;;;2.00;1.90;;;;;;;;;;5045327;28;20450;-67
2023/09/03 12:34:33;;;;;;;1.57;1.57;;;;;;;;;;5044140;28;20542;-67
2023/09/03 12:37:00;;;;;;;2.10;2.00;;;;;;;;;;5039825;28;20446;-67
2023/09/03 12:39:32;;;;;;;3.10;2.90;;;;;;;;;;5045679;28;20446;-67
2023/09/03 12:41:59;;;;;;;1.70;1.70;;;;;;;;;;5033320;28;20439;-67
2023/09/03 12:44:26;;;;;;;4.83;2.20;;;;;;;;;;5037789;28;20462;-67
2023/09/03 12:46:52;;;;;;;2.73;2.60;;;;;;;;;;5048802;28;20485;-67
2023/09/03 12:49:18;;;;;;;2.90;2.80;;;;;;;;;;5045990;28;20431;-67
2023/09/03 12:51:44;;;;;;;2.30;1.67;;;;;;;;;;5047467;28;20598;-68
2023/09/03 12:54:11;;;;;;;2.00;1.90;;;;;;;;;;5043029;28;20470;-68
2023/09/03 12:56:37;;;;;;;2.83;1.90;;;;;;;;;;5042728;28;20439;-68
2023/09/03 12:59:06;;;;;;;1.50;1.50;;;;;;;;;;5043951;28;20492;-68
2023/09/03 13:01:36;;;;;;;2.00;1.90;;;;;;;;;;5036390;28;20864;-67
2023/09/03 13:04:02;;;;;;;2.13;2.10;;;;;;;;;;5041964;28;20439;-67
2023/09/03 13:06:28;;;;;;;1.70;1.70;;;;;;;;;;5037408;28;20565;-67
2023/09/03 13:08:55;;;;;;;1.90;1.80;;;;;;;;;;5043892;28;20817;-68
2023/09/03 13:11:21;;;;;;;1.27;1.27;;;;;;;;;;5041929;28;20512;-68
2023/09/03 13:13:50;;;;;;;1.70;1.60;;;;;;;;;;5044076;28;20444;-67
2023/09/03 13:16:19;;;;;;;1.67;1.67;;;;;;;;;;5048083;28;20484;-67
2023/09/03 13:18:46;;;;;;;1.50;1.50;;;;;;;;;;5049829;28;20431;-67
2023/09/03 13:21:12;;;;;;;2.50;1.50;;;;;;;;;;5049534;28;20430;-67
2023/09/03 13:23:39;;;;;;;1.97;1.77;;;;;;;;;;5048931;28;20800;-67
2023/09/03 13:26:05;;;;;;;1.67;1.57;;;;;;;;;;5044555;28;20436;-67
2023/09/03 13:28:32;;;;;;;1.50;1.40;;;;;;;;;;5049696;28;20458;-67
2023/09/03 13:30:58;;;;;;;1.53;1.53;;;;;;;;;;5038093;28;20439;-68
2023/09/03 13:33:24;;;;;;;1.53;1.43;;;;;;;;;;5029064;28;20589;-67
2023/09/03 13:35:51;;;;;;;1.57;1.47;;;;;;;;;;5029870;28;20518;-68
2023/09/03 13:38:17;;;;;;;1.97;1.97;;;;;;;;;;5031382;28;20447;-68
2023/09/03 13:40:43;;;;;;;1.63;1.63;;;;;;;;;;5029910;28;20438;-67
2023/09/03 13:43:09;;;;;;;1.53;1.53;;;;;;;;;;5029550;28;20446;-67
2023/09/03 13:45:35;;;;;;;3.30;1.83;;;;;;;;;;5029196;28;20449;-68
2023/09/03 13:48:01;;;;;;;1.50;1.50;;;;;;;;;;5027203;28;20580;-67
2023/09/03 13:50:30;;;;;;;2.70;2.27;;;;;;;;;;5029404;28;20422;-67
2023/09/03 13:52:56;;;;;;;1.77;1.70;;;;;;;;;;5030874;28;20442;-68
2023/09/03 13:55:25;;;;;;;1.70;1.70;;;;;;;;;;5034060;28;20450;-67
2023/09/03 13:57:54;;;;;;;2.50;2.00;;;;;;;;;;5029045;28;20484;-67
2023/09/03 14:00:21;;;;;;;1.60;1.50;;;;;;;;;;5030346;28;20505;-67
2023/09/03 14:02:47;;;;;;;1.70;1.43;;;;;;;;;;5029590;28;20478;-67
2023/09/03 14:05:14;;;;;;;2.17;2.07;;;;;;;;;;5030840;28;20805;-67
2023/09/03 14:07:40;;;;;;;2.23;2.00;;;;;;;;;;5031297;28;20675;-67
2023/09/03 14:10:06;;;;;;;1.50;1.50;;;;;;;;;;5031565;28;21050;-67
2023/09/03 14:12:32;;;;;;;1.70;1.70;;;;;;;;;;5028964;28;20439;-67
2023/09/03 14:14:58;;;;;;;2.13;1.93;;;;;;;;;;5029204;28;20431;-67
2023/09/03 14:17:24;;;;;;;1.43;1.43;;;;;;;;;;5029745;28;21449;-68
2023/09/03 14:19:51;;;;;;;4.10;1.50;;;;;;;;;;5030082;28;20798;-67
2023/09/03 14:22:18;;;;;;;4.03;1.83;;;;;;;;;;5027915;28;20522;-67
2023/09/03 14:24:44;;;;;;;1.90;1.80;;;;;;;;;;5032813;28;20522;-68
2023/09/03 14:27:10;;;;;;;1.33;1.33;;;;;;;;;;5034442;28;21002;-69
2023/09/03 14:29:37;;;;;;;2.47;1.60;;;;;;;;;;5035755;28;20458;-68
2023/09/03 14:32:03;;;;;;;1.60;1.60;;;;;;;;;;5034469;28;20443;-67
2023/09/03 14:34:29;;;;;;;1.53;1.53;;;;;;;;;;5032716;28;20439;-67
2023/09/03 14:36:57;;;;;;;1.83;1.83;;;;;;;;;;5030489;28;20452;-68
2023/09/03 14:39:23;;;;;;;2.60;2.50;;;;;;;;;;5030115;28;20525;-69
2023/09/03 14:41:49;;;;;;;1.83;1.77;;;;;;;;;;5030809;28;20466;-67
2023/09/03 14:44:15;;;;;;;1.57;1.57;;;;;;;;;;5031318;28;20422;-67